UAL184 KSAN-KLAX
Flight info
| Callsign | UAL184 |
|---|---|
| Flight time | 0h 39m |
| Altitude | 10000 |
| Route | CWARD2 SLI |
| Aircraft | B772/H-SDE2E3FGHIJ5LORVWXY/LB1D1 |
Departure
| Time | 2026-05-07 00:14 |
|---|---|
| Airport | San Diego International Airport (KSAN) |
Arrival
| Time | 2026-05-07 00:53 |
|---|---|
| Airport | Los Angeles International Airport (KLAX) |
| Time | Latitude | Longitude | Altitude | Speed | Heading |
|---|---|---|---|---|---|
| 2026-05-06 23:52 | 32.73430 | -117.20480 | 26 ft | 0 kts | 122° |
| 2026-05-07 00:04 | 32.73432 | -117.20484 | 36 ft | 1 kts | 122° |
| 2026-05-07 00:04 | 32.73446 | -117.20508 | 32 ft | 4 kts | 116° |
| 2026-05-07 00:05 | 32.73452 | -117.20542 | 31 ft | 4 kts | 63° |
| 2026-05-07 00:05 | 32.73433 | -117.20557 | 32 ft | 0 kts | 360° |
| 2026-05-07 00:07 | 32.73455 | -117.20554 | 31 ft | 4 kts | 11° |
| 2026-05-07 00:07 | 32.73490 | -117.20530 | 26 ft | 8 kts | 38° |
| 2026-05-07 00:07 | 32.73547 | -117.20463 | 27 ft | 16 kts | 50° |
| 2026-05-07 00:08 | 32.73580 | -117.20322 | 27 ft | 19 kts | 99° |
| 2026-05-07 00:08 | 32.73544 | -117.20164 | 30 ft | 27 kts | 105° |
| 2026-05-07 00:08 | 32.73471 | -117.19867 | 31 ft | 45 kts | 106° |
| 2026-05-07 00:08 | 32.73374 | -117.19463 | 31 ft | 56 kts | 105° |
| 2026-05-07 00:09 | 32.73267 | -117.19025 | 31 ft | 52 kts | 106° |
| 2026-05-07 00:09 | 32.73170 | -117.18629 | 28 ft | 48 kts | 106° |
| 2026-05-07 00:09 | 32.73077 | -117.18240 | 25 ft | 49 kts | 105° |
| 2026-05-07 00:09 | 32.73001 | -117.17922 | 22 ft | 33 kts | 107° |
| 2026-05-07 00:10 | 32.72965 | -117.17789 | 23 ft | 12 kts | 109° |
| 2026-05-07 00:10 | 32.72956 | -117.17755 | 25 ft | 1 kts | 106° |
| 2026-05-07 00:10 | 32.72953 | -117.17744 | 24 ft | 1 kts | 105° |
| 2026-05-07 00:10 | 32.72951 | -117.17728 | 23 ft | 5 kts | 98° |
| 2026-05-07 00:11 | 32.72951 | -117.17716 | 22 ft | 0 kts | 90° |
| 2026-05-07 00:11 | 32.72952 | -117.17704 | 21 ft | 2 kts | 82° |
| 2026-05-07 00:11 | 32.72953 | -117.17698 | 22 ft | 0 kts | 82° |
| 2026-05-07 00:12 | 32.72958 | -117.17671 | 21 ft | 7 kts | 76° |
| 2026-05-07 00:12 | 32.72984 | -117.17623 | 24 ft | 5 kts | 34° |
| 2026-05-07 00:13 | 32.73011 | -117.17621 | 24 ft | 4 kts | 340° |
| 2026-05-07 00:13 | 32.73045 | -117.17686 | 23 ft | 19 kts | 291° |
| 2026-05-07 00:13 | 32.73169 | -117.18193 | 25 ft | 111 kts | 286° |
| 2026-05-07 00:13 | 32.73464 | -117.19396 | 100 ft | 184 kts | 287° |
| 2026-05-07 00:14 | 32.73853 | -117.20921 | 911 ft | 197 kts | 288° |
| 2026-05-07 00:14 | 32.74385 | -117.22417 | 1885 ft | 200 kts | 304° |
| 2026-05-07 00:14 | 32.75249 | -117.23698 | 2711 ft | 203 kts | 308° |
| 2026-05-07 00:14 | 32.76093 | -117.25124 | 3149 ft | 215 kts | 304° |
| 2026-05-07 00:15 | 32.76936 | -117.26602 | 3632 ft | 222 kts | 306° |
| 2026-05-07 00:15 | 32.77809 | -117.28124 | 4236 ft | 224 kts | 305° |
| 2026-05-07 00:15 | 32.78688 | -117.29654 | 4844 ft | 225 kts | 305° |
| 2026-05-07 00:15 | 32.79579 | -117.31206 | 5400 ft | 227 kts | 307° |
| 2026-05-07 00:16 | 32.80501 | -117.32736 | 5980 ft | 229 kts | 309° |
| 2026-05-07 00:16 | 32.81474 | -117.34242 | 6558 ft | 231 kts | 310° |
| 2026-05-07 00:16 | 32.82462 | -117.35759 | 7069 ft | 234 kts | 310° |
| 2026-05-07 00:16 | 32.83459 | -117.37290 | 7612 ft | 235 kts | 310° |
| 2026-05-07 00:17 | 32.84462 | -117.38835 | 8157 ft | 236 kts | 311° |
| 2026-05-07 00:17 | 32.85467 | -117.40386 | 8699 ft | 238 kts | 311° |
| 2026-05-07 00:17 | 32.86482 | -117.41957 | 9227 ft | 240 kts | 311° |
| 2026-05-07 00:17 | 32.87505 | -117.43542 | 9761 ft | 242 kts | 311° |
| 2026-05-07 00:18 | 32.88539 | -117.45145 | 9994 ft | 246 kts | 311° |
| 2026-05-07 00:18 | 32.89578 | -117.46756 | 9960 ft | 255 kts | 311° |
| 2026-05-07 00:18 | 32.90707 | -117.48502 | 9964 ft | 279 kts | 311° |
| 2026-05-07 00:18 | 32.91917 | -117.50379 | 9983 ft | 289 kts | 311° |
| 2026-05-07 00:19 | 32.93138 | -117.52283 | 9982 ft | 289 kts | 311° |
| 2026-05-07 00:19 | 32.94356 | -117.54185 | 9984 ft | 289 kts | 311° |
| 2026-05-07 00:19 | 32.95579 | -117.56094 | 9989 ft | 290 kts | 311° |
| 2026-05-07 00:19 | 32.96803 | -117.58005 | 9989 ft | 290 kts | 311° |
| 2026-05-07 00:20 | 32.98029 | -117.59919 | 9983 ft | 290 kts | 311° |
| 2026-05-07 00:20 | 32.99253 | -117.61830 | 9976 ft | 290 kts | 311° |
| 2026-05-07 00:20 | 33.00476 | -117.63740 | 9978 ft | 290 kts | 311° |
| 2026-05-07 00:20 | 33.01697 | -117.65649 | 9968 ft | 290 kts | 311° |
| 2026-05-07 00:21 | 33.02923 | -117.67565 | 9972 ft | 291 kts | 311° |
| 2026-05-07 00:21 | 33.04149 | -117.69481 | 9976 ft | 291 kts | 311° |
| 2026-05-07 00:21 | 33.05376 | -117.71400 | 9979 ft | 291 kts | 311° |
| 2026-05-07 00:21 | 33.06618 | -117.73299 | 9966 ft | 287 kts | 315° |
| 2026-05-07 00:22 | 33.08054 | -117.74917 | 9996 ft | 283 kts | 324° |
| 2026-05-07 00:22 | 33.09579 | -117.76386 | 9978 ft | 286 kts | 325° |
| 2026-05-07 00:22 | 33.11137 | -117.77881 | 9986 ft | 288 kts | 324° |
| 2026-05-07 00:22 | 33.12690 | -117.79405 | 9977 ft | 290 kts | 324° |
| 2026-05-07 00:23 | 33.14238 | -117.80954 | 9976 ft | 290 kts | 323° |
| 2026-05-07 00:23 | 33.15779 | -117.82515 | 9973 ft | 290 kts | 323° |
| 2026-05-07 00:23 | 33.17312 | -117.84075 | 9976 ft | 289 kts | 323° |
| 2026-05-07 00:23 | 33.18842 | -117.85617 | 9967 ft | 284 kts | 326° |
| 2026-05-07 00:24 | 33.20528 | -117.86620 | 9970 ft | 274 kts | 353° |
| 2026-05-07 00:24 | 33.22432 | -117.86876 | 9987 ft | 279 kts | 356° |
| 2026-05-07 00:24 | 33.24359 | -117.87291 | 9990 ft | 281 kts | 351° |
| 2026-05-07 00:24 | 33.26266 | -117.87811 | 9966 ft | 279 kts | 350° |
| 2026-05-07 00:25 | 33.28152 | -117.88325 | 9965 ft | 277 kts | 351° |
| 2026-05-07 00:25 | 33.30025 | -117.88818 | 9967 ft | 275 kts | 351° |
| 2026-05-07 00:25 | 33.31897 | -117.89298 | 9971 ft | 275 kts | 351° |
| 2026-05-07 00:25 | 33.33771 | -117.89769 | 9976 ft | 275 kts | 351° |
| 2026-05-07 00:26 | 33.35650 | -117.90239 | 9979 ft | 276 kts | 351° |
| 2026-05-07 00:26 | 33.37540 | -117.90710 | 9972 ft | 278 kts | 351° |
| 2026-05-07 00:26 | 33.39426 | -117.91228 | 9969 ft | 279 kts | 348° |
| 2026-05-07 00:26 | 33.41297 | -117.91894 | 9975 ft | 281 kts | 346° |
| 2026-05-07 00:27 | 33.43160 | -117.92594 | 9969 ft | 281 kts | 346° |
| 2026-05-07 00:27 | 33.45029 | -117.93293 | 9973 ft | 281 kts | 346° |
| 2026-05-07 00:27 | 33.46898 | -117.93987 | 9968 ft | 282 kts | 346° |
| 2026-05-07 00:27 | 33.48774 | -117.94679 | 9971 ft | 281 kts | 346° |
| 2026-05-07 00:28 | 33.50647 | -117.95366 | 9962 ft | 281 kts | 346° |
| 2026-05-07 00:28 | 33.52488 | -117.96039 | 9963 ft | 280 kts | 346° |
| 2026-05-07 00:28 | 33.54354 | -117.96720 | 9963 ft | 280 kts | 346° |
| 2026-05-07 00:28 | 33.56212 | -117.97398 | 9962 ft | 279 kts | 346° |
| 2026-05-07 00:29 | 33.58071 | -117.98075 | 9962 ft | 279 kts | 346° |
| 2026-05-07 00:29 | 33.59925 | -117.98751 | 9916 ft | 277 kts | 346° |
| 2026-05-07 00:30 | 33.65320 | -118.00724 | 7746 ft | 270 kts | 345° |
| 2026-05-07 00:30 | 33.67076 | -118.01371 | 7359 ft | 255 kts | 345° |
| 2026-05-07 00:30 | 33.68705 | -118.01972 | 7137 ft | 236 kts | 345° |
| 2026-05-07 00:30 | 33.70219 | -118.02529 | 6995 ft | 220 kts | 346° |
| 2026-05-07 00:31 | 33.71686 | -118.03067 | 7012 ft | 225 kts | 346° |
| 2026-05-07 00:31 | 33.73210 | -118.03625 | 7022 ft | 231 kts | 346° |
| 2026-05-07 00:31 | 33.74843 | -118.04221 | 7044 ft | 261 kts | 345° |
| 2026-05-07 00:31 | 33.76616 | -118.04873 | 6984 ft | 268 kts | 345° |
| 2026-05-07 00:32 | 33.78404 | -118.05533 | 6970 ft | 268 kts | 345° |
| 2026-05-07 00:32 | 33.80157 | -118.06230 | 6955 ft | 263 kts | 342° |
| 2026-05-07 00:32 | 33.81846 | -118.06989 | 6782 ft | 253 kts | 342° |
| 2026-05-07 00:32 | 33.83470 | -118.07718 | 6207 ft | 251 kts | 342° |
| 2026-05-07 00:33 | 33.85102 | -118.08443 | 5640 ft | 250 kts | 341° |
| 2026-05-07 00:33 | 33.86748 | -118.09154 | 5352 ft | 250 kts | 340° |
| 2026-05-07 00:33 | 33.88396 | -118.09847 | 5189 ft | 249 kts | 341° |
| 2026-05-07 00:33 | 33.90010 | -118.10520 | 4981 ft | 238 kts | 341° |
| 2026-05-07 00:34 | 33.91494 | -118.11137 | 5036 ft | 223 kts | 341° |
| 2026-05-07 00:34 | 33.92968 | -118.11746 | 4986 ft | 221 kts | 341° |
| 2026-05-07 00:34 | 33.94384 | -118.12403 | 4576 ft | 217 kts | 330° |
| 2026-05-07 00:34 | 33.95426 | -118.13681 | 3951 ft | 217 kts | 298° |
| 2026-05-07 00:35 | 33.95945 | -118.15391 | 3366 ft | 217 kts | 289° |
| 2026-05-07 00:35 | 33.96368 | -118.17128 | 3221 ft | 220 kts | 277° |
| 2026-05-07 00:35 | 33.96224 | -118.18981 | 3180 ft | 223 kts | 256° |
| 2026-05-07 00:35 | 33.95816 | -118.20680 | 3019 ft | 204 kts | 257° |
| 2026-05-07 00:36 | 33.95486 | -118.22296 | 2831 ft | 191 kts | 258° |
| 2026-05-07 00:36 | 33.95189 | -118.23774 | 2585 ft | 174 kts | 256° |
| 2026-05-07 00:36 | 33.94950 | -118.25127 | 2356 ft | 158 kts | 263° |
| 2026-05-07 00:36 | 33.94845 | -118.26387 | 2153 ft | 142 kts | 263° |
| 2026-05-07 00:37 | 33.94753 | -118.27529 | 1981 ft | 135 kts | 263° |
| 2026-05-07 00:37 | 33.94667 | -118.28642 | 1884 ft | 135 kts | 262° |
| 2026-05-07 00:37 | 33.94538 | -118.29765 | 1836 ft | 133 kts | 261° |
| 2026-05-07 00:37 | 33.94370 | -118.30911 | 1713 ft | 143 kts | 260° |
| 2026-05-07 00:38 | 33.94264 | -118.32074 | 1609 ft | 140 kts | 263° |
| 2026-05-07 00:38 | 33.94158 | -118.33236 | 1445 ft | 136 kts | 262° |
| 2026-05-07 00:38 | 33.94068 | -118.34355 | 1223 ft | 138 kts | 263° |
| 2026-05-07 00:38 | 33.93997 | -118.35488 | 965 ft | 130 kts | 263° |
| 2026-05-07 00:39 | 33.93890 | -118.36555 | 671 ft | 131 kts | 264° |
| 2026-05-07 00:39 | 33.93787 | -118.37647 | 353 ft | 131 kts | 264° |
| 2026-05-07 00:39 | 33.93696 | -118.38713 | 204 ft | 125 kts | 263° |
| 2026-05-07 00:39 | 33.93575 | -118.39766 | 393 ft | 129 kts | 260° |
| 2026-05-07 00:40 | 33.93399 | -118.40840 | 573 ft | 128 kts | 252° |
| 2026-05-07 00:40 | 33.93187 | -118.41879 | 978 ft | 136 kts | 260° |
| 2026-05-07 00:40 | 33.93012 | -118.43020 | 1375 ft | 139 kts | 257° |
| 2026-05-07 00:40 | 33.92718 | -118.44095 | 1516 ft | 140 kts | 244° |
| 2026-05-07 00:41 | 33.92071 | -118.45014 | 1359 ft | 146 kts | 219° |
| 2026-05-07 00:41 | 33.91071 | -118.45232 | 1352 ft | 161 kts | 168° |
| 2026-05-07 00:41 | 33.90177 | -118.44352 | 1260 ft | 175 kts | 124° |
| 2026-05-07 00:41 | 33.89814 | -118.42991 | 1354 ft | 170 kts | 101° |
| 2026-05-07 00:42 | 33.89786 | -118.41542 | 1469 ft | 172 kts | 77° |
| 2026-05-07 00:42 | 33.90095 | -118.40212 | 1726 ft | 170 kts | 77° |
| 2026-05-07 00:42 | 33.90028 | -118.38764 | 1999 ft | 172 kts | 103° |
| 2026-05-07 00:42 | 33.89820 | -118.37394 | 2236 ft | 169 kts | 96° |
| 2026-05-07 00:43 | 33.89670 | -118.35982 | 2501 ft | 168 kts | 97° |
| 2026-05-07 00:43 | 33.89535 | -118.34606 | 2736 ft | 165 kts | 96° |
| 2026-05-07 00:43 | 33.89390 | -118.33226 | 2843 ft | 165 kts | 96° |
| 2026-05-07 00:43 | 33.89351 | -118.31856 | 2904 ft | 165 kts | 79° |
| 2026-05-07 00:44 | 33.89609 | -118.30524 | 2978 ft | 162 kts | 75° |
| 2026-05-07 00:44 | 33.89820 | -118.29169 | 3009 ft | 168 kts | 78° |
| 2026-05-07 00:44 | 33.90005 | -118.27787 | 3008 ft | 164 kts | 79° |
| 2026-05-07 00:44 | 33.90169 | -118.26461 | 3003 ft | 161 kts | 80° |
| 2026-05-07 00:45 | 33.90325 | -118.25106 | 3016 ft | 164 kts | 81° |
| 2026-05-07 00:45 | 33.90479 | -118.23733 | 3011 ft | 166 kts | 81° |
| 2026-05-07 00:45 | 33.90629 | -118.22349 | 2985 ft | 167 kts | 81° |
| 2026-05-07 00:45 | 33.90775 | -118.20952 | 2902 ft | 169 kts | 82° |
| 2026-05-07 00:46 | 33.90929 | -118.19448 | 2985 ft | 197 kts | 82° |
| 2026-05-07 00:46 | 33.91096 | -118.17776 | 2983 ft | 205 kts | 81° |
| 2026-05-07 00:46 | 33.91265 | -118.16039 | 3009 ft | 210 kts | 83° |
| 2026-05-07 00:46 | 33.91421 | -118.14314 | 2985 ft | 205 kts | 73° |
| 2026-05-07 00:47 | 33.92124 | -118.12864 | 2991 ft | 205 kts | 35° |
| 2026-05-07 00:47 | 33.93564 | -118.12131 | 3019 ft | 246 kts | 5° |
| 2026-05-07 00:47 | 33.95240 | -118.12412 | 2993 ft | 243 kts | 334° |
| 2026-05-07 00:47 | 33.96528 | -118.13677 | 2989 ft | 236 kts | 302° |
| 2026-05-07 00:48 | 33.97071 | -118.15398 | 2968 ft | 206 kts | 280° |
| 2026-05-07 00:48 | 33.97241 | -118.17085 | 2800 ft | 203 kts | 271° |
| 2026-05-07 00:48 | 33.97174 | -118.18748 | 2440 ft | 196 kts | 268° |
| 2026-05-07 00:48 | 33.97096 | -118.20350 | 2108 ft | 188 kts | 264° |
| 2026-05-07 00:49 | 33.96898 | -118.21864 | 1927 ft | 183 kts | 255° |
| 2026-05-07 00:49 | 33.96654 | -118.23346 | 1620 ft | 176 kts | 262° |
| 2026-05-07 00:49 | 33.96520 | -118.24808 | 1531 ft | 171 kts | 261° |
| 2026-05-07 00:49 | 33.96435 | -118.26169 | 1687 ft | 155 kts | 270° |
| 2026-05-07 00:50 | 33.96531 | -118.27403 | 1832 ft | 141 kts | 271° |
| 2026-05-07 00:50 | 33.96473 | -118.28531 | 1910 ft | 132 kts | 262° |
| 2026-05-07 00:50 | 33.96359 | -118.29687 | 1871 ft | 146 kts | 261° |
| 2026-05-07 00:50 | 33.96218 | -118.30875 | 1872 ft | 143 kts | 260° |
| 2026-05-07 00:51 | 33.96039 | -118.32044 | 1859 ft | 137 kts | 258° |
| 2026-05-07 00:51 | 33.95878 | -118.33208 | 1860 ft | 143 kts | 263° |
| 2026-05-07 00:51 | 33.95838 | -118.34362 | 1639 ft | 133 kts | 266° |
| 2026-05-07 00:51 | 33.95692 | -118.35458 | 1514 ft | 134 kts | 262° |
| 2026-05-07 00:52 | 33.95594 | -118.36610 | 1150 ft | 138 kts | 264° |
| 2026-05-07 00:52 | 33.95480 | -118.37703 | 769 ft | 124 kts | 262° |
| 2026-05-07 00:52 | 33.95362 | -118.38687 | 521 ft | 123 kts | 259° |
| 2026-05-07 00:52 | 33.95249 | -118.39750 | 250 ft | 127 kts | 263° |
| 2026-05-07 00:53 | 33.95150 | -118.40779 | 132 ft | 116 kts | 263° |
| 2026-05-07 00:53 | 33.95076 | -118.41491 | 125 ft | 45 kts | 265° |
| 2026-05-07 00:53 | 33.95053 | -118.41666 | 127 ft | 17 kts | 255° |
| 2026-05-07 00:53 | 33.95021 | -118.41768 | 127 ft | 5 kts | 243° |
| 2026-05-07 00:54 | 33.95018 | -118.41776 | 125 ft | 3 kts | 243° |
| 2026-05-07 00:54 | 33.94993 | -118.41832 | 128 ft | 8 kts | 240° |
| 2026-05-07 00:54 | 33.94965 | -118.41890 | 125 ft | 8 kts | 239° |
| 2026-05-07 00:54 | 33.94931 | -118.41944 | 126 ft | 8 kts | 231° |
| 2026-05-07 00:55 | 33.94892 | -118.42001 | 125 ft | 11 kts | 230° |
| 2026-05-07 00:55 | 33.94837 | -118.42087 | 126 ft | 15 kts | 232° |
| 2026-05-07 00:55 | 33.94772 | -118.42190 | 124 ft | 6 kts | 233° |
| 2026-05-07 00:55 | 33.94754 | -118.42215 | 125 ft | 4 kts | 224° |
| 2026-05-07 00:56 | 33.94742 | -118.42227 | 126 ft | 0 kts | 214° |
| 2026-05-07 00:56 | 33.94738 | -118.42230 | 124 ft | 1 kts | 210° |
| 2026-05-07 00:56 | 33.94722 | -118.42233 | 126 ft | 3 kts | 179° |
| 2026-05-07 00:56 | 33.94700 | -118.42211 | 124 ft | 6 kts | 122° |
| 2026-05-07 00:57 | 33.94690 | -118.42153 | 125 ft | 9 kts | 87° |
| 2026-05-07 00:57 | 33.94698 | -118.42065 | 129 ft | 12 kts | 82° |
| 2026-05-07 00:57 | 33.94714 | -118.41949 | 129 ft | 16 kts | 82° |
| 2026-05-07 00:57 | 33.94695 | -118.41846 | 124 ft | 11 kts | 138° |
| 2026-05-07 00:58 | 33.94664 | -118.41811 | 124 ft | 2 kts | 134° |
| 2026-05-07 00:58 | 33.94651 | -118.41780 | 126 ft | 7 kts | 106° |
| 2026-05-07 00:58 | 33.94656 | -118.41688 | 128 ft | 15 kts | 81° |
| 2026-05-07 00:58 | 33.94670 | -118.41552 | 129 ft | 15 kts | 83° |
| 2026-05-07 00:59 | 33.94561 | -118.41364 | 127 ft | 19 kts | 174° |
| 2026-05-07 00:59 | 33.94472 | -118.41351 | 126 ft | 20 kts | 172° |
| 2026-05-07 00:59 | 33.94323 | -118.41328 | 127 ft | 23 kts | 173° |
| 2026-05-07 01:00 | 33.94159 | -118.41304 | 130 ft | 25 kts | 175° |
| 2026-05-07 01:00 | 33.93937 | -118.41273 | 128 ft | 21 kts | 173° |
| 2026-05-07 01:00 | 33.93844 | -118.41211 | 126 ft | 16 kts | 105° |
| 2026-05-07 01:00 | 33.93854 | -118.41066 | 126 ft | 18 kts | 86° |
| 2026-05-07 01:01 | 33.93861 | -118.40962 | 126 ft | 18 kts | 83° |
| 2026-05-07 01:01 | 33.93879 | -118.40812 | 130 ft | 18 kts | 83° |
| 2026-05-07 01:01 | 33.93893 | -118.40658 | 127 ft | 18 kts | 83° |
| 2026-05-07 01:01 | 33.93908 | -118.40505 | 128 ft | 18 kts | 82° |
| 2026-05-07 01:02 | 33.93926 | -118.40358 | 125 ft | 17 kts | 82° |
| 2026-05-07 01:02 | 33.93934 | -118.40264 | 127 ft | 11 kts | 85° |
| 2026-05-07 01:02 | 33.93940 | -118.40169 | 125 ft | 11 kts | 85° |